Terminal Aerodrome Forecast
Issued by NWS North Platte, NE

Home | Current Version | Previous Version | Graphics & Text | Print | Product List | Glossary On
Versions: 1 2 3 4 5 6 7 8 9 10 11 12 13
000
FTUS43 KLBF 200500
TAFVTN
TAF
KVTN 200520Z 2006/2106 VRB02KT P6SM OVC022
      TEMPO 2010/2012 4SM BR
     FM201200 VRB03KT P6SM SCT030
     FM201800 16008KT P6SM SCT250=

USA.gov is the U.S. government's official web portal to all federal, state and local government web resources and services.